KHAI/HAI METAR and TAF weather

Enter ICAO airport designator
Station Type Date Time Source
KHAI METAR 2024/02/21 00:35 UTC NOAA

KHAI 210035Z AUTO 17006KT 10SM CLR 05/M04 A3017 RMK AO2 T00541045


Station Type Date Time Source
KHAI Decoded METAR 2024/02/21 00:35 UTC NOAA

Station name not available
Feb 20, 2024 - 07:35 PM EST / 2024.02.21 0035 UTC
Wind: from the S (170 degrees) at 7 MPH (6 KT):0
Visibility: 10 mile(s):0
Sky conditions: clear
Temperature: 41.7 F (5.4 C)
Dew Point: 23.9 F (-4.5 C)
Relative Humidity: 48%
Pressure (altimeter): 30.17 in. Hg (1021 hPa)
ob: KHAI 210035Z AUTO 17006KT 10SM CLR 05/M04 A3017 RMK AO2 T00541045
cycle: 0

Station Type Date Time Source
KHAI TAF UTC NOAA

Error!

Example: see airport list